sensor_id;sensor_type;location;lat;lon;timestamp;P1;durP1;ratioP1;P2;durP2;ratioP2
19043;SDS011;9654;52.302;8.120;2023-12-22T00:02:07;26.33;;;3.57;;
19043;SDS011;9654;52.302;8.120;2023-12-22T00:04:34;17.43;;;2.90;;
19043;SDS011;9654;52.302;8.120;2023-12-22T00:07:02;18.33;;;3.17;;
19043;SDS011;9654;52.302;8.120;2023-12-22T00:09:29;14.60;;;2.20;;
19043;SDS011;9654;52.302;8.120;2023-12-22T00:11:56;13.93;;;2.23;;
19043;SDS011;9654;52.302;8.120;2023-12-22T00:14:23;19.03;;;3.47;;
19043;SDS011;9654;52.302;8.120;2023-12-22T00:16:49;14.07;;;2.70;;
19043;SDS011;9654;52.302;8.120;2023-12-22T00:19:16;11.33;;;1.53;;
19043;SDS011;9654;52.302;8.120;2023-12-22T00:21:44;10.93;;;1.80;;
19043;SDS011;9654;52.302;8.120;2023-12-22T00:24:12;15.33;;;2.67;;
19043;SDS011;9654;52.302;8.120;2023-12-22T00:26:39;5.60;;;1.77;;
19043;SDS011;9654;52.302;8.120;2023-12-22T00:29:06;18.80;;;2.87;;
19043;SDS011;9654;52.302;8.120;2023-12-22T00:31:33;18.53;;;3.27;;
19043;SDS011;9654;52.302;8.120;2023-12-22T00:34:00;15.03;;;2.80;;
19043;SDS011;9654;52.302;8.120;2023-12-22T00:36:27;28.70;;;4.60;;
19043;SDS011;9654;52.302;8.120;2023-12-22T00:38:54;18.40;;;3.40;;
19043;SDS011;9654;52.302;8.120;2023-12-22T00:41:22;22.20;;;3.90;;
19043;SDS011;9654;52.302;8.120;2023-12-22T00:43:49;22.40;;;3.27;;
19043;SDS011;9654;52.302;8.120;2023-12-22T00:46:16;19.67;;;3.10;;
19043;SDS011;9654;52.302;8.120;2023-12-22T00:48:42;20.60;;;3.10;;
19043;SDS011;9654;52.302;8.120;2023-12-22T00:51:09;24.57;;;3.13;;
19043;SDS011;9654;52.302;8.120;2023-12-22T00:53:36;7.03;;;1.73;;
19043;SDS011;9654;52.302;8.120;2023-12-22T00:56:03;12.97;;;2.20;;
19043;SDS011;9654;52.302;8.120;2023-12-22T00:58:32;6.23;;;1.50;;
19043;SDS011;9654;52.302;8.120;2023-12-22T01:00:59;5.60;;;1.33;;
19043;SDS011;9654;52.302;8.120;2023-12-22T01:03:26;4.57;;;1.60;;
19043;SDS011;9654;52.302;8.120;2023-12-22T01:05:53;10.07;;;1.80;;
19043;SDS011;9654;52.302;8.120;2023-12-22T01:08:19;15.10;;;2.83;;
19043;SDS011;9654;52.302;8.120;2023-12-22T01:10:46;10.67;;;2.33;;
19043;SDS011;9654;52.302;8.120;2023-12-22T01:13:13;8.10;;;2.87;;
19043;SDS011;9654;52.302;8.120;2023-12-22T01:15:41;9.17;;;1.60;;
19043;SDS011;9654;52.302;8.120;2023-12-22T01:18:09;10.33;;;3.10;;
19043;SDS011;9654;52.302;8.120;2023-12-22T01:20:36;10.50;;;1.97;;
19043;SDS011;9654;52.302;8.120;2023-12-22T01:23:03;11.80;;;1.83;;
19043;SDS011;9654;52.302;8.120;2023-12-22T01:25:30;13.87;;;2.30;;
19043;SDS011;9654;52.302;8.120;2023-12-22T01:27:56;13.37;;;2.30;;
19043;SDS011;9654;52.302;8.120;2023-12-22T01:30:24;19.03;;;3.70;;
19043;SDS011;9654;52.302;8.120;2023-12-22T01:32:52;11.83;;;2.20;;
19043;SDS011;9654;52.302;8.120;2023-12-22T01:35:19;11.03;;;2.43;;
19043;SDS011;9654;52.302;8.120;2023-12-22T01:37:46;15.13;;;2.30;;
19043;SDS011;9654;52.302;8.120;2023-12-22T01:40:14;12.77;;;2.80;;
19043;SDS011;9654;52.302;8.120;2023-12-22T01:42:41;26.83;;;3.47;;
19043;SDS011;9654;52.302;8.120;2023-12-22T01:45:08;23.37;;;3.20;;
19043;SDS011;9654;52.302;8.120;2023-12-22T01:47:35;22.30;;;3.50;;
19043;SDS011;9654;52.302;8.120;2023-12-22T01:50:04;25.27;;;3.20;;
19043;SDS011;9654;52.302;8.120;2023-12-22T01:52:31;26.23;;;4.37;;
19043;SDS011;9654;52.302;8.120;2023-12-22T01:54:58;35.57;;;5.23;;
19043;SDS011;9654;52.302;8.120;2023-12-22T01:57:25;22.20;;;4.07;;
19043;SDS011;9654;52.302;8.120;2023-12-22T01:59:52;23.37;;;3.47;;
19043;SDS011;9654;52.302;8.120;2023-12-22T02:02:19;22.43;;;4.23;;
19043;SDS011;9654;52.302;8.120;2023-12-22T02:04:46;24.87;;;6.10;;
19043;SDS011;9654;52.302;8.120;2023-12-22T02:07:14;17.33;;;3.93;;
19043;SDS011;9654;52.302;8.120;2023-12-22T02:09:41;22.03;;;3.90;;
19043;SDS011;9654;52.302;8.120;2023-12-22T02:12:08;15.30;;;3.27;;
19043;SDS011;9654;52.302;8.120;2023-12-22T02:14:36;18.73;;;4.27;;
19043;SDS011;9654;52.302;8.120;2023-12-22T02:17:05;15.40;;;3.03;;
19043;SDS011;9654;52.302;8.120;2023-12-22T02:19:40;17.93;;;3.00;;
19043;SDS011;9654;52.302;8.120;2023-12-22T02:22:09;8.63;;;2.60;;
19043;SDS011;9654;52.302;8.120;2023-12-22T02:24:38;13.87;;;2.53;;
19043;SDS011;9654;52.302;8.120;2023-12-22T02:27:08;16.67;;;3.10;;
19043;SDS011;9654;52.302;8.120;2023-12-22T02:29:41;17.33;;;3.80;;
19043;SDS011;9654;52.302;8.120;2023-12-22T02:32:13;18.87;;;3.27;;
19043;SDS011;9654;52.302;8.120;2023-12-22T02:34:45;19.80;;;3.40;;
19043;SDS011;9654;52.302;8.120;2023-12-22T02:37:16;27.13;;;4.33;;
19043;SDS011;9654;52.302;8.120;2023-12-22T02:39:47;25.07;;;4.27;;
19043;SDS011;9654;52.302;8.120;2023-12-22T02:42:14;20.17;;;3.83;;
19043;SDS011;9654;52.302;8.120;2023-12-22T02:44:43;23.03;;;4.50;;
19043;SDS011;9654;52.302;8.120;2023-12-22T02:47:09;18.90;;;3.63;;
19043;SDS011;9654;52.302;8.120;2023-12-22T02:49:36;24.77;;;3.57;;
19043;SDS011;9654;52.302;8.120;2023-12-22T02:52:03;30.07;;;4.17;;
19043;SDS011;9654;52.302;8.120;2023-12-22T02:54:30;24.63;;;3.80;;
19043;SDS011;9654;52.302;8.120;2023-12-22T02:56:59;21.03;;;4.07;;
19043;SDS011;9654;52.302;8.120;2023-12-22T02:59:26;22.63;;;3.83;;
19043;SDS011;9654;52.302;8.120;2023-12-22T03:01:53;19.87;;;3.63;;
19043;SDS011;9654;52.302;8.120;2023-12-22T03:04:20;19.63;;;3.83;;
19043;SDS011;9654;52.302;8.120;2023-12-22T03:06:47;16.37;;;3.67;;
19043;SDS011;9654;52.302;8.120;2023-12-22T03:09:14;23.07;;;4.47;;
19043;SDS011;9654;52.302;8.120;2023-12-22T03:11:41;25.73;;;4.03;;
19043;SDS011;9654;52.302;8.120;2023-12-22T03:14:09;19.57;;;3.67;;
19043;SDS011;9654;52.302;8.120;2023-12-22T03:16:36;22.70;;;4.80;;
19043;SDS011;9654;52.302;8.120;2023-12-22T03:19:03;21.07;;;3.87;;
19043;SDS011;9654;52.302;8.120;2023-12-22T03:21:30;27.23;;;3.83;;
19043;SDS011;9654;52.302;8.120;2023-12-22T03:23:56;22.33;;;5.83;;
19043;SDS011;9654;52.302;8.120;2023-12-22T03:26:23;17.77;;;3.23;;
19043;SDS011;9654;52.302;8.120;2023-12-22T03:28:52;22.97;;;3.77;;
19043;SDS011;9654;52.302;8.120;2023-12-22T03:31:21;17.20;;;3.87;;
19043;SDS011;9654;52.302;8.120;2023-12-22T03:33:47;20.77;;;3.57;;
19043;SDS011;9654;52.302;8.120;2023-12-22T03:36:14;13.10;;;3.00;;
19043;SDS011;9654;52.302;8.120;2023-12-22T03:38:41;15.43;;;2.73;;
19043;SDS011;9654;52.302;8.120;2023-12-22T03:41:08;16.03;;;3.27;;
19043;SDS011;9654;52.302;8.120;2023-12-22T03:43:35;21.23;;;4.20;;
19043;SDS011;9654;52.302;8.120;2023-12-22T03:46:02;25.83;;;4.27;;
19043;SDS011;9654;52.302;8.120;2023-12-22T03:48:30;24.87;;;5.13;;
19043;SDS011;9654;52.302;8.120;2023-12-22T03:50:57;19.50;;;3.73;;
19043;SDS011;9654;52.302;8.120;2023-12-22T03:53:24;13.50;;;3.17;;
19043;SDS011;9654;52.302;8.120;2023-12-22T03:55:51;15.47;;;3.00;;
19043;SDS011;9654;52.302;8.120;2023-12-22T03:58:17;16.87;;;2.70;;
19043;SDS011;9654;52.302;8.120;2023-12-22T04:00:44;32.70;;;7.93;;
19043;SDS011;9654;52.302;8.120;2023-12-22T04:03:11;21.73;;;3.77;;
19043;SDS011;9654;52.302;8.120;2023-12-22T04:05:39;20.43;;;5.70;;
19043;SDS011;9654;52.302;8.120;2023-12-22T04:08:06;22.70;;;5.30;;
19043;SDS011;9654;52.302;8.120;2023-12-22T04:10:33;15.97;;;3.53;;
19043;SDS011;9654;52.302;8.120;2023-12-22T04:13:00;16.23;;;3.10;;
19043;SDS011;9654;52.302;8.120;2023-12-22T04:15:27;19.07;;;3.33;;
19043;SDS011;9654;52.302;8.120;2023-12-22T04:17:53;12.33;;;3.23;;
19043;SDS011;9654;52.302;8.120;2023-12-22T04:20:20;14.30;;;2.50;;
19043;SDS011;9654;52.302;8.120;2023-12-22T04:22:49;15.73;;;2.73;;
19043;SDS011;9654;52.302;8.120;2023-12-22T04:25:15;17.07;;;2.40;;
19043;SDS011;9654;52.302;8.120;2023-12-22T04:27:43;14.87;;;3.90;;
19043;SDS011;9654;52.302;8.120;2023-12-22T04:30:10;14.30;;;2.33;;
19043;SDS011;9654;52.302;8.120;2023-12-22T04:32:37;11.90;;;2.63;;
19043;SDS011;9654;52.302;8.120;2023-12-22T04:35:04;12.93;;;2.10;;
19043;SDS011;9654;52.302;8.120;2023-12-22T04:37:31;9.97;;;1.97;;
19043;SDS011;9654;52.302;8.120;2023-12-22T04:39:59;9.10;;;2.40;;
19043;SDS011;9654;52.302;8.120;2023-12-22T04:42:26;10.57;;;2.50;;
19043;SDS011;9654;52.302;8.120;2023-12-22T04:44:53;11.63;;;2.43;;
19043;SDS011;9654;52.302;8.120;2023-12-22T04:47:20;10.57;;;2.07;;
19043;SDS011;9654;52.302;8.120;2023-12-22T04:49:47;13.90;;;1.80;;
19043;SDS011;9654;52.302;8.120;2023-12-22T04:52:14;10.80;;;2.10;;
19043;SDS011;9654;52.302;8.120;2023-12-22T04:54:41;10.37;;;2.07;;
19043;SDS011;9654;52.302;8.120;2023-12-22T04:57:09;8.03;;;1.67;;
19043;SDS011;9654;52.302;8.120;2023-12-22T04:59:36;11.67;;;1.47;;
19043;SDS011;9654;52.302;8.120;2023-12-22T05:02:03;8.77;;;1.33;;
19043;SDS011;9654;52.302;8.120;2023-12-22T05:04:30;8.27;;;2.17;;
19043;SDS011;9654;52.302;8.120;2023-12-22T05:06:56;8.70;;;1.20;;
19043;SDS011;9654;52.302;8.120;2023-12-22T05:09:24;6.03;;;1.30;;
19043;SDS011;9654;52.302;8.120;2023-12-22T05:11:50;8.90;;;2.17;;
19043;SDS011;9654;52.302;8.120;2023-12-22T05:14:19;8.47;;;1.60;;
19043;SDS011;9654;52.302;8.120;2023-12-22T05:16:45;5.80;;;1.20;;
19043;SDS011;9654;52.302;8.120;2023-12-22T05:19:12;9.97;;;1.30;;
19043;SDS011;9654;52.302;8.120;2023-12-22T05:21:39;11.77;;;2.07;;
19043;SDS011;9654;52.302;8.120;2023-12-22T05:24:06;6.77;;;1.63;;
19043;SDS011;9654;52.302;8.120;2023-12-22T05:26:33;6.60;;;1.40;;
19043;SDS011;9654;52.302;8.120;2023-12-22T05:29:00;7.70;;;2.13;;
19043;SDS011;9654;52.302;8.120;2023-12-22T05:31:28;10.43;;;1.90;;
19043;SDS011;9654;52.302;8.120;2023-12-22T05:33:56;6.70;;;1.77;;
19043;SDS011;9654;52.302;8.120;2023-12-22T05:36:23;10.93;;;1.63;;
19043;SDS011;9654;52.302;8.120;2023-12-22T05:38:51;8.13;;;1.77;;
19043;SDS011;9654;52.302;8.120;2023-12-22T05:41:18;9.03;;;1.57;;
19043;SDS011;9654;52.302;8.120;2023-12-22T05:43:44;8.63;;;1.73;;
19043;SDS011;9654;52.302;8.120;2023-12-22T05:46:11;16.50;;;2.57;;
19043;SDS011;9654;52.302;8.120;2023-12-22T05:48:39;14.47;;;2.03;;
19043;SDS011;9654;52.302;8.120;2023-12-22T05:51:06;7.57;;;1.63;;
19043;SDS011;9654;52.302;8.120;2023-12-22T05:53:38;24.30;;;2.70;;
19043;SDS011;9654;52.302;8.120;2023-12-22T05:56:06;11.93;;;2.20;;
19043;SDS011;9654;52.302;8.120;2023-12-22T05:58:43;16.60;;;3.37;;
19043;SDS011;9654;52.302;8.120;2023-12-22T06:01:13;15.67;;;2.50;;
19043;SDS011;9654;52.302;8.120;2023-12-22T06:03:42;15.93;;;2.03;;
19043;SDS011;9654;52.302;8.120;2023-12-22T06:06:09;12.57;;;2.27;;
19043;SDS011;9654;52.302;8.120;2023-12-22T06:08:36;20.53;;;3.67;;
19043;SDS011;9654;52.302;8.120;2023-12-22T06:11:03;11.73;;;2.60;;
19043;SDS011;9654;52.302;8.120;2023-12-22T06:13:32;11.50;;;2.30;;
19043;SDS011;9654;52.302;8.120;2023-12-22T06:15:59;16.57;;;2.57;;
19043;SDS011;9654;52.302;8.120;2023-12-22T06:18:25;20.27;;;3.47;;
19043;SDS011;9654;52.302;8.120;2023-12-22T06:20:54;16.03;;;2.77;;
19043;SDS011;9654;52.302;8.120;2023-12-22T06:23:20;14.00;;;2.30;;
19043;SDS011;9654;52.302;8.120;2023-12-22T06:25:47;14.47;;;3.60;;
19043;SDS011;9654;52.302;8.120;2023-12-22T06:28:14;13.90;;;2.57;;
19043;SDS011;9654;52.302;8.120;2023-12-22T06:30:42;21.00;;;3.67;;
19043;SDS011;9654;52.302;8.120;2023-12-22T06:33:10;14.70;;;2.47;;
19043;SDS011;9654;52.302;8.120;2023-12-22T06:35:37;11.87;;;2.80;;
19043;SDS011;9654;52.302;8.120;2023-12-22T06:38:07;10.87;;;2.87;;
19043;SDS011;9654;52.302;8.120;2023-12-22T06:40:36;15.03;;;3.57;;
19043;SDS011;9654;52.302;8.120;2023-12-22T06:43:03;13.53;;;2.97;;
19043;SDS011;9654;52.302;8.120;2023-12-22T06:45:30;15.20;;;3.33;;
19043;SDS011;9654;52.302;8.120;2023-12-22T06:47:57;14.43;;;3.73;;
19043;SDS011;9654;52.302;8.120;2023-12-22T06:50:24;20.70;;;3.90;;
19043;SDS011;9654;52.302;8.120;2023-12-22T06:52:51;17.87;;;3.03;;
19043;SDS011;9654;52.302;8.120;2023-12-22T06:55:19;20.70;;;3.50;;
19043;SDS011;9654;52.302;8.120;2023-12-22T06:57:46;17.33;;;2.77;;
19043;SDS011;9654;52.302;8.120;2023-12-22T07:00:13;17.00;;;3.40;;
19043;SDS011;9654;52.302;8.120;2023-12-22T07:02:40;22.33;;;5.60;;
19043;SDS011;9654;52.302;8.120;2023-12-22T07:07:57;16.43;;;2.93;;
19043;SDS011;9654;52.302;8.120;2023-12-22T07:10:25;21.33;;;3.23;;
19043;SDS011;9654;52.302;8.120;2023-12-22T07:12:52;16.97;;;2.83;;
19043;SDS011;9654;52.302;8.120;2023-12-22T07:15:19;14.43;;;4.00;;
19043;SDS011;9654;52.302;8.120;2023-12-22T07:17:46;18.47;;;3.23;;
19043;SDS011;9654;52.302;8.120;2023-12-22T07:20:13;22.77;;;4.60;;
19043;SDS011;9654;52.302;8.120;2023-12-22T07:22:40;17.13;;;4.57;;
19043;SDS011;9654;52.302;8.120;2023-12-22T07:25:07;16.73;;;3.43;;
19043;SDS011;9654;52.302;8.120;2023-12-22T07:27:36;27.77;;;4.67;;
19043;SDS011;9654;52.302;8.120;2023-12-22T07:30:03;21.17;;;3.80;;
19043;SDS011;9654;52.302;8.120;2023-12-22T07:32:31;19.47;;;3.60;;
19043;SDS011;9654;52.302;8.120;2023-12-22T07:34:57;15.23;;;2.90;;
19043;SDS011;9654;52.302;8.120;2023-12-22T07:37:24;15.63;;;3.07;;
19043;SDS011;9654;52.302;8.120;2023-12-22T07:39:51;21.17;;;3.43;;
19043;SDS011;9654;52.302;8.120;2023-12-22T07:42:18;13.03;;;2.63;;
19043;SDS011;9654;52.302;8.120;2023-12-22T07:44:46;25.97;;;3.40;;
19043;SDS011;9654;52.302;8.120;2023-12-22T07:47:13;18.97;;;3.67;;
19043;SDS011;9654;52.302;8.120;2023-12-22T07:49:40;10.27;;;2.67;;
19043;SDS011;9654;52.302;8.120;2023-12-22T07:52:07;20.77;;;3.57;;
19043;SDS011;9654;52.302;8.120;2023-12-22T07:54:34;14.77;;;3.03;;
19043;SDS011;9654;52.302;8.120;2023-12-22T07:57:02;20.60;;;4.27;;
19043;SDS011;9654;52.302;8.120;2023-12-22T07:59:29;20.80;;;3.87;;
19043;SDS011;9654;52.302;8.120;2023-12-22T08:01:57;10.40;;;2.60;;
19043;SDS011;9654;52.302;8.120;2023-12-22T08:04:24;24.40;;;3.17;;
19043;SDS011;9654;52.302;8.120;2023-12-22T08:06:51;13.03;;;3.33;;
19043;SDS011;9654;52.302;8.120;2023-12-22T08:09:18;13.53;;;2.97;;
19043;SDS011;9654;52.302;8.120;2023-12-22T08:11:45;22.23;;;3.20;;
19043;SDS011;9654;52.302;8.120;2023-12-22T08:14:12;20.87;;;3.63;;
19043;SDS011;9654;52.302;8.120;2023-12-22T08:16:39;16.17;;;3.43;;
19043;SDS011;9654;52.302;8.120;2023-12-22T08:19:07;14.43;;;3.30;;
19043;SDS011;9654;52.302;8.120;2023-12-22T08:21:34;17.23;;;4.00;;
19043;SDS011;9654;52.302;8.120;2023-12-22T08:24:01;18.37;;;2.70;;
19043;SDS011;9654;52.302;8.120;2023-12-22T08:26:28;15.47;;;3.57;;
19043;SDS011;9654;52.302;8.120;2023-12-22T08:28:55;18.63;;;4.33;;
19043;SDS011;9654;52.302;8.120;2023-12-22T08:31:22;15.00;;;3.80;;
19043;SDS011;9654;52.302;8.120;2023-12-22T08:33:50;22.43;;;3.80;;
19043;SDS011;9654;52.302;8.120;2023-12-22T08:36:18;21.03;;;5.13;;
19043;SDS011;9654;52.302;8.120;2023-12-22T08:38:45;20.20;;;3.20;;
19043;SDS011;9654;52.302;8.120;2023-12-22T08:41:11;18.00;;;3.90;;
19043;SDS011;9654;52.302;8.120;2023-12-22T08:43:39;17.57;;;3.37;;
19043;SDS011;9654;52.302;8.120;2023-12-22T08:46:07;24.53;;;3.80;;
19043;SDS011;9654;52.302;8.120;2023-12-22T08:48:35;21.00;;;3.33;;
19043;SDS011;9654;52.302;8.120;2023-12-22T08:51:02;19.73;;;3.17;;
19043;SDS011;9654;52.302;8.120;2023-12-22T08:53:30;37.00;;;4.83;;
19043;SDS011;9654;52.302;8.120;2023-12-22T08:56:01;25.77;;;3.63;;
19043;SDS011;9654;52.302;8.120;2023-12-22T08:58:29;22.07;;;3.60;;
19043;SDS011;9654;52.302;8.120;2023-12-22T09:00:56;16.20;;;3.33;;
19043;SDS011;9654;52.302;8.120;2023-12-22T09:03:22;25.77;;;5.50;;
19043;SDS011;9654;52.302;8.120;2023-12-22T09:05:51;23.80;;;4.93;;
19043;SDS011;9654;52.302;8.120;2023-12-22T09:08:18;22.10;;;5.07;;
19043;SDS011;9654;52.302;8.120;2023-12-22T09:10:47;19.47;;;4.70;;
19043;SDS011;9654;52.302;8.120;2023-12-22T09:13:14;16.27;;;3.80;;
19043;SDS011;9654;52.302;8.120;2023-12-22T09:15:41;20.50;;;3.30;;
19043;SDS011;9654;52.302;8.120;2023-12-22T09:18:11;22.23;;;4.63;;
19043;SDS011;9654;52.302;8.120;2023-12-22T09:20:38;16.23;;;2.80;;
19043;SDS011;9654;52.302;8.120;2023-12-22T09:23:06;21.77;;;3.30;;
19043;SDS011;9654;52.302;8.120;2023-12-22T09:25:34;13.70;;;2.83;;
19043;SDS011;9654;52.302;8.120;2023-12-22T09:28:03;26.20;;;3.70;;
19043;SDS011;9654;52.302;8.120;2023-12-22T09:30:31;16.77;;;2.73;;
19043;SDS011;9654;52.302;8.120;2023-12-22T09:32:57;18.97;;;3.03;;
19043;SDS011;9654;52.302;8.120;2023-12-22T09:35:24;19.00;;;2.57;;
19043;SDS011;9654;52.302;8.120;2023-12-22T09:37:51;16.17;;;3.20;;
19043;SDS011;9654;52.302;8.120;2023-12-22T09:40:19;11.93;;;2.43;;
19043;SDS011;9654;52.302;8.120;2023-12-22T09:42:47;9.00;;;2.50;;
19043;SDS011;9654;52.302;8.120;2023-12-22T09:45:17;12.57;;;2.70;;
19043;SDS011;9654;52.302;8.120;2023-12-22T09:47:45;14.63;;;2.80;;
19043;SDS011;9654;52.302;8.120;2023-12-22T09:50:13;8.63;;;2.80;;
19043;SDS011;9654;52.302;8.120;2023-12-22T09:52:41;17.20;;;2.70;;
19043;SDS011;9654;52.302;8.120;2023-12-22T09:55:10;12.77;;;2.40;;
19043;SDS011;9654;52.302;8.120;2023-12-22T09:57:39;13.50;;;2.80;;
19043;SDS011;9654;52.302;8.120;2023-12-22T10:00:06;13.13;;;2.10;;
19043;SDS011;9654;52.302;8.120;2023-12-22T10:02:37;7.80;;;2.67;;
19043;SDS011;9654;52.302;8.120;2023-12-22T10:05:03;11.27;;;2.60;;
19043;SDS011;9654;52.302;8.120;2023-12-22T10:07:30;13.23;;;2.80;;
19043;SDS011;9654;52.302;8.120;2023-12-22T10:09:59;8.43;;;2.60;;
19043;SDS011;9654;52.302;8.120;2023-12-22T10:12:27;12.80;;;2.33;;
19043;SDS011;9654;52.302;8.120;2023-12-22T10:14:55;10.60;;;1.90;;
19043;SDS011;9654;52.302;8.120;2023-12-22T10:17:25;8.70;;;2.20;;
19043;SDS011;9654;52.302;8.120;2023-12-22T10:19:53;6.03;;;1.63;;
19043;SDS011;9654;52.302;8.120;2023-12-22T10:22:20;11.33;;;2.10;;
19043;SDS011;9654;52.302;8.120;2023-12-22T10:24:49;12.63;;;1.93;;
19043;SDS011;9654;52.302;8.120;2023-12-22T10:27:17;11.03;;;2.23;;
19043;SDS011;9654;52.302;8.120;2023-12-22T10:29:47;5.30;;;2.00;;
19043;SDS011;9654;52.302;8.120;2023-12-22T10:32:15;7.67;;;1.80;;
19043;SDS011;9654;52.302;8.120;2023-12-22T10:34:42;8.30;;;1.70;;
19043;SDS011;9654;52.302;8.120;2023-12-22T10:37:10;9.63;;;1.90;;
19043;SDS011;9654;52.302;8.120;2023-12-22T10:39:38;16.90;;;2.93;;
19043;SDS011;9654;52.302;8.120;2023-12-22T10:42:05;6.80;;;1.97;;
19043;SDS011;9654;52.302;8.120;2023-12-22T10:44:32;11.37;;;2.90;;
19043;SDS011;9654;52.302;8.120;2023-12-22T10:47:00;8.37;;;1.73;;
19043;SDS011;9654;52.302;8.120;2023-12-22T10:49:27;9.47;;;1.83;;
19043;SDS011;9654;52.302;8.120;2023-12-22T10:51:56;7.57;;;2.03;;
19043;SDS011;9654;52.302;8.120;2023-12-22T10:54:24;9.23;;;2.87;;
19043;SDS011;9654;52.302;8.120;2023-12-22T10:56:52;14.00;;;3.67;;
19043;SDS011;9654;52.302;8.120;2023-12-22T10:59:23;5.13;;;1.47;;
19043;SDS011;9654;52.302;8.120;2023-12-22T11:01:54;10.40;;;2.03;;
19043;SDS011;9654;52.302;8.120;2023-12-22T11:04:24;4.03;;;1.33;;
19043;SDS011;9654;52.302;8.120;2023-12-22T11:06:56;4.90;;;1.40;;
19043;SDS011;9654;52.302;8.120;2023-12-22T11:09:25;4.43;;;1.13;;
19043;SDS011;9654;52.302;8.120;2023-12-22T11:11:56;4.40;;;1.27;;
19043;SDS011;9654;52.302;8.120;2023-12-22T11:14:23;9.33;;;2.20;;
19043;SDS011;9654;52.302;8.120;2023-12-22T11:16:52;6.63;;;1.10;;
19043;SDS011;9654;52.302;8.120;2023-12-22T11:19:21;4.77;;;1.27;;
19043;SDS011;9654;52.302;8.120;2023-12-22T11:21:50;3.43;;;1.10;;
19043;SDS011;9654;52.302;8.120;2023-12-22T11:24:20;7.23;;;1.43;;
19043;SDS011;9654;52.302;8.120;2023-12-22T11:26:49;5.27;;;1.37;;
19043;SDS011;9654;52.302;8.120;2023-12-22T11:29:17;5.27;;;1.37;;
19043;SDS011;9654;52.302;8.120;2023-12-22T11:31:46;5.47;;;1.87;;
19043;SDS011;9654;52.302;8.120;2023-12-22T11:34:16;3.63;;;1.17;;
19043;SDS011;9654;52.302;8.120;2023-12-22T11:36:44;6.13;;;1.90;;
19043;SDS011;9654;52.302;8.120;2023-12-22T11:39:13;10.57;;;1.73;;
19043;SDS011;9654;52.302;8.120;2023-12-22T11:41:40;5.53;;;1.03;;
19043;SDS011;9654;52.302;8.120;2023-12-22T11:44:10;4.83;;;2.13;;
19043;SDS011;9654;52.302;8.120;2023-12-22T11:46:37;5.20;;;1.43;;
19043;SDS011;9654;52.302;8.120;2023-12-22T11:49:04;2.93;;;1.23;;
19043;SDS011;9654;52.302;8.120;2023-12-22T11:51:33;8.10;;;1.83;;
19043;SDS011;9654;52.302;8.120;2023-12-22T11:54:00;4.87;;;1.60;;
19043;SDS011;9654;52.302;8.120;2023-12-22T11:56:28;4.93;;;1.27;;
19043;SDS011;9654;52.302;8.120;2023-12-22T11:58:55;4.37;;;1.40;;
19043;SDS011;9654;52.302;8.120;2023-12-22T12:01:27;6.33;;;1.60;;
19043;SDS011;9654;52.302;8.120;2023-12-22T12:03:57;8.07;;;1.20;;
19043;SDS011;9654;52.302;8.120;2023-12-22T12:06:33;4.97;;;1.50;;
19043;SDS011;9654;52.302;8.120;2023-12-22T12:09:03;5.33;;;1.00;;
19043;SDS011;9654;52.302;8.120;2023-12-22T12:14:37;5.97;;;1.57;;
19043;SDS011;9654;52.302;8.120;2023-12-22T12:17:09;6.87;;;1.40;;
19043;SDS011;9654;52.302;8.120;2023-12-22T12:19:37;2.67;;;1.20;;
19043;SDS011;9654;52.302;8.120;2023-12-22T12:22:04;7.43;;;1.30;;
19043;SDS011;9654;52.302;8.120;2023-12-22T12:24:32;5.57;;;1.07;;
19043;SDS011;9654;52.302;8.120;2023-12-22T12:26:59;5.60;;;1.17;;
19043;SDS011;9654;52.302;8.120;2023-12-22T12:29:26;5.43;;;1.07;;
19043;SDS011;9654;52.302;8.120;2023-12-22T12:31:53;2.00;;;0.77;;
19043;SDS011;9654;52.302;8.120;2023-12-22T12:34:30;3.50;;;1.20;;
19043;SDS011;9654;52.302;8.120;2023-12-22T12:36:58;3.87;;;0.60;;
19043;SDS011;9654;52.302;8.120;2023-12-22T12:39:27;5.77;;;0.97;;
19043;SDS011;9654;52.302;8.120;2023-12-22T12:41:57;5.53;;;1.23;;
19043;SDS011;9654;52.302;8.120;2023-12-22T12:44:26;2.73;;;0.70;;
19043;SDS011;9654;52.302;8.120;2023-12-22T12:46:53;4.90;;;0.83;;
19043;SDS011;9654;52.302;8.120;2023-12-22T12:49:20;3.87;;;0.90;;
19043;SDS011;9654;52.302;8.120;2023-12-22T12:51:53;3.30;;;1.10;;
19043;SDS011;9654;52.302;8.120;2023-12-22T12:54:20;5.47;;;1.10;;
19043;SDS011;9654;52.302;8.120;2023-12-22T12:56:47;3.20;;;0.90;;
19043;SDS011;9654;52.302;8.120;2023-12-22T12:59:14;3.93;;;1.57;;
19043;SDS011;9654;52.302;8.120;2023-12-22T13:01:44;1.83;;;1.60;;
19043;SDS011;9654;52.302;8.120;2023-12-22T13:04:12;4.10;;;1.10;;
19043;SDS011;9654;52.302;8.120;2023-12-22T13:06:43;3.30;;;0.70;;
19043;SDS011;9654;52.302;8.120;2023-12-22T13:09:12;2.47;;;1.50;;
19043;SDS011;9654;52.302;8.120;2023-12-22T13:11:39;2.67;;;0.57;;
19043;SDS011;9654;52.302;8.120;2023-12-22T13:14:08;3.57;;;0.73;;
19043;SDS011;9654;52.302;8.120;2023-12-22T13:16:35;2.03;;;0.50;;
19043;SDS011;9654;52.302;8.120;2023-12-22T13:19:03;4.50;;;0.80;;
19043;SDS011;9654;52.302;8.120;2023-12-22T13:21:30;2.00;;;0.70;;
19043;SDS011;9654;52.302;8.120;2023-12-22T13:24:10;1.87;;;0.57;;
19043;SDS011;9654;52.302;8.120;2023-12-22T13:26:39;1.80;;;0.80;;
19043;SDS011;9654;52.302;8.120;2023-12-22T13:29:07;2.23;;;0.53;;
19043;SDS011;9654;52.302;8.120;2023-12-22T13:31:36;3.77;;;1.13;;
19043;SDS011;9654;52.302;8.120;2023-12-22T13:34:07;4.53;;;0.87;;
19043;SDS011;9654;52.302;8.120;2023-12-22T13:36:35;4.67;;;0.60;;
19043;SDS011;9654;52.302;8.120;2023-12-22T13:39:02;2.47;;;0.80;;
19043;SDS011;9654;52.302;8.120;2023-12-22T13:41:31;1.93;;;0.97;;
19043;SDS011;9654;52.302;8.120;2023-12-22T13:44:03;1.47;;;0.70;;
19043;SDS011;9654;52.302;8.120;2023-12-22T13:46:30;3.60;;;1.17;;
19043;SDS011;9654;52.302;8.120;2023-12-22T13:49:00;2.50;;;0.80;;
19043;SDS011;9654;52.302;8.120;2023-12-22T13:51:27;0.90;;;0.70;;
19043;SDS011;9654;52.302;8.120;2023-12-22T13:54:04;3.43;;;1.40;;
19043;SDS011;9654;52.302;8.120;2023-12-22T13:56:32;4.07;;;2.43;;
19043;SDS011;9654;52.302;8.120;2023-12-22T13:59:02;1.70;;;0.50;;
19043;SDS011;9654;52.302;8.120;2023-12-22T14:01:29;4.67;;;1.67;;
19043;SDS011;9654;52.302;8.120;2023-12-22T14:03:57;1.03;;;0.73;;
19043;SDS011;9654;52.302;8.120;2023-12-22T14:06:24;3.23;;;1.00;;
19043;SDS011;9654;52.302;8.120;2023-12-22T14:08:51;3.73;;;1.37;;
19043;SDS011;9654;52.302;8.120;2023-12-22T14:11:19;1.40;;;0.40;;
19043;SDS011;9654;52.302;8.120;2023-12-22T14:13:46;0.80;;;0.57;;
19043;SDS011;9654;52.302;8.120;2023-12-22T14:16:14;2.43;;;0.53;;
19043;SDS011;9654;52.302;8.120;2023-12-22T14:18:41;1.17;;;0.80;;
19043;SDS011;9654;52.302;8.120;2023-12-22T14:21:08;2.13;;;0.50;;
19043;SDS011;9654;52.302;8.120;2023-12-22T14:23:35;1.60;;;0.70;;
19043;SDS011;9654;52.302;8.120;2023-12-22T14:26:02;2.63;;;0.60;;
19043;SDS011;9654;52.302;8.120;2023-12-22T14:28:30;2.63;;;0.60;;
19043;SDS011;9654;52.302;8.120;2023-12-22T14:30:57;2.13;;;0.50;;
19043;SDS011;9654;52.302;8.120;2023-12-22T14:33:25;2.13;;;0.70;;
19043;SDS011;9654;52.302;8.120;2023-12-22T14:35:52;1.90;;;0.70;;
19043;SDS011;9654;52.302;8.120;2023-12-22T14:38:19;5.23;;;0.57;;
19043;SDS011;9654;52.302;8.120;2023-12-22T14:40:46;2.20;;;0.50;;
19043;SDS011;9654;52.302;8.120;2023-12-22T14:43:13;2.43;;;0.77;;
19043;SDS011;9654;52.302;8.120;2023-12-22T14:45:40;2.97;;;0.80;;
19043;SDS011;9654;52.302;8.120;2023-12-22T14:48:07;3.33;;;0.70;;
19043;SDS011;9654;52.302;8.120;2023-12-22T14:50:35;0.80;;;0.70;;
19043;SDS011;9654;52.302;8.120;2023-12-22T14:53:02;1.60;;;0.60;;
19043;SDS011;9654;52.302;8.120;2023-12-22T14:55:29;3.37;;;1.33;;
19043;SDS011;9654;52.302;8.120;2023-12-22T14:57:57;0.80;;;0.80;;
19043;SDS011;9654;52.302;8.120;2023-12-22T15:00:24;7.67;;;0.97;;
19043;SDS011;9654;52.302;8.120;2023-12-22T15:02:51;4.40;;;1.30;;